Time;durP1;ratioP1;P1;durP2;ratioP2;P2;SDS_P1;SDS_P2;PMS_P1;PMS_P2;Temp;Humidity;BMP_temperature;BMP_pressure;BME280_temperature;BME280_humidity;BME280_pressure;Samples;Min_cycle;Max_cycle;Signal;HPM_P1;HPM_P2
2022/09/25 00:02:25;;;;;;;3.80;0.70;;;;;;;17.12;57.69;99888.16;5052788;28;20287;-61
2022/09/25 00:05:04;;;;;;;2.42;0.57;;;;;;;17.17;55.54;99897.59;5022261;28;20311;-59
2022/09/25 00:10:46;;;;;;;1.63;0.57;;;;;;;17.14;55.70;99905.63;5047862;28;20605;-61
2022/09/25 00:13:28;;;;;;;6.27;0.73;;;;;;;17.10;56.14;99890.91;5062637;28;20284;-58
2022/09/25 00:16:12;;;;;;;2.33;0.30;;;;;;;17.17;55.05;99892.31;5045568;28;20308;-61
2022/09/25 00:21:53;;;;;;;5.37;0.80;;;;;;;16.90;55.43;99904.19;5052525;28;20296;-58
2022/09/25 00:24:35;;;;;;;4.38;0.68;;;;;;;16.93;54.62;99899.63;5053643;28;20530;-58
2022/09/25 00:27:17;;;;;;;3.85;0.93;;;;;;;17.14;55.58;99912.69;5023802;28;20045;-59
2022/09/25 00:29:54;;;;;;;3.80;0.80;;;;;;;17.31;52.96;99907.44;5006020;28;20118;-59
2022/09/25 00:32:46;;;;;;;4.63;0.53;;;;;;;16.97;55.29;99836.97;5042844;28;20284;-58
2022/09/25 00:35:34;;;;;;;4.37;0.60;;;;;;;17.35;53.69;99900.25;5043649;28;20288;-59
2022/09/25 00:38:47;;;;;;;1.83;0.40;;;;;;;17.35;53.36;99905.53;5044677;28;20332;-60
2022/09/25 00:41:58;;;;;;;14.00;9.03;;;;;;;17.43;55.16;99908.63;5009038;28;20308;-59
2022/09/25 00:45:11;;;;;;;3.63;1.70;;;;;;;17.70;54.18;99916.94;5024235;28;20328;-61
2022/09/25 00:48:11;;;;;;;1.47;0.50;;;;;;;17.90;52.39;99918.59;5032516;28;20636;-60
2022/09/25 00:50:58;;;;;;;5.67;0.50;;;;;;;17.78;53.02;99908.63;4982190;28;20358;-59
2022/09/25 00:53:49;;;;;;;6.27;0.50;;;;;;;17.76;53.01;99915.75;5051741;28;20311;-58
2022/09/25 00:56:48;;;;;;;2.10;0.40;;;;;;;17.77;54.42;99917.47;5060044;28;20293;-60
2022/09/25 00:59:45;;;;;;;2.00;0.60;;;;;;;17.74;54.74;99888.56;5056896;28;20291;-60
2022/09/25 01:03:00;;;;;;;3.73;0.57;;;;;;;17.86;53.41;99904.66;5062750;28;20304;-61
2022/09/25 01:05:45;;;;;;;2.77;0.97;;;;;;;17.99;54.34;99930.44;5044634;28;20339;-60
2022/09/25 01:08:44;;;;;;;1.70;0.60;;;;;;;18.15;55.01;99933.16;5029853;28;20284;-59
2022/09/25 01:11:22;;;;;;;2.90;0.60;;;;;;;18.27;53.03;99932.47;5038804;28;20353;-59
2022/09/25 01:14:16;;;;;;;2.43;0.70;;;;;;;18.31;52.30;99944.63;5066404;28;20295;-59
2022/09/25 01:17:03;;;;;;;2.28;0.60;;;;;;;18.37;54.15;99939.00;5045179;28;20300;-60
2022/09/25 01:20:01;;;;;;;1.40;0.57;;;;;;;18.57;52.66;99934.41;5061004;28;20057;-61
2022/09/25 01:23:16;;;;;;;1.97;0.80;;;;;;;18.80;53.71;99936.69;5046222;28;20733;-60
2022/09/25 01:26:12;;;;;;;3.27;0.70;;;;;;;18.92;51.47;99951.88;5064067;28;20350;-59
2022/09/25 01:29:23;;;;;;;1.93;0.60;;;;;;;19.00;52.50;99951.47;5038553;28;20296;-61
2022/09/25 01:32:20;;;;;;;2.53;0.30;;;;;;;18.72;49.89;99928.25;5050068;28;20292;-61
2022/09/25 01:35:23;;;;;;;0.87;0.30;;;;;;;18.79;48.96;99960.59;5028994;28;20295;-62
2022/09/25 01:38:37;;;;;;;1.73;0.30;;;;;;;18.58;51.16;99975.81;5056626;28;20442;-59
2022/09/25 01:44:28;;;;;;;2.40;0.70;;;;;;;18.68;53.63;99963.81;5068224;28;20311;-60
2022/09/25 01:47:28;;;;;;;6.83;1.23;;;;;;;19.08;54.37;99974.84;5053098;28;20345;-61
2022/09/25 01:50:27;;;;;;;2.75;0.77;;;;;;;19.19;53.94;99972.44;5057390;28;20283;-60
2022/09/25 01:53:19;;;;;;;2.90;0.80;;;;;;;18.98;53.11;99977.16;5027890;28;20336;-61
2022/09/25 01:56:06;;;;;;;2.07;0.60;;;;;;;18.56;53.44;99959.16;5060406;28;20429;-60
2022/09/25 01:58:57;;;;;;;2.20;0.50;;;;;;;18.29;53.72;99978.22;5069163;28;20290;-60
2022/09/25 02:01:37;;;;;;;3.40;0.60;;;;;;;18.31;52.85;99955.19;5068810;28;20298;-60
2022/09/25 02:04:26;;;;;;;6.40;0.70;;;;;;;18.67;53.17;99983.25;5068375;28;20296;-61
2022/09/25 02:07:22;;;;;;;1.27;0.35;;;;;;;18.92;51.06;99988.97;5054604;28;20306;-60
2022/09/25 02:10:25;;;;;;;3.17;0.40;;;;;;;18.97;50.19;99991.34;5066676;28;20047;-59
2022/09/25 02:22:10;;;;;;;4.37;0.80;;;;;;;19.87;50.65;100013.63;5070136;28;20306;-60
2022/09/25 02:24:55;;;;;;;2.07;0.43;;;;;;;19.95;49.94;100008.75;5069067;28;20318;-61
2022/09/25 02:28:05;;;;;;;1.37;0.23;;;;;;;19.85;48.63;100020.84;5070845;28;20296;-61
2022/09/25 02:30:40;;;;;;;3.00;0.50;;;;;;;19.78;48.69;100015.03;5027183;28;20642;-60
2022/09/25 02:33:22;;;;;;;2.00;0.40;;;;;;;19.79;48.87;100020.25;5069450;28;20325;-59
2022/09/25 02:36:17;;;;;;;0.83;0.30;;;;;;;19.88;49.30;100020.66;5023028;28;20053;-59
2022/09/25 02:38:58;;;;;;;9.63;0.70;;;;;;;20.04;50.76;100021.44;5069641;28;20297;-60
2022/09/25 02:42:11;;;;;;;4.63;1.20;;;;;;;20.24;50.27;100015.81;5068706;28;20357;-61
2022/09/25 02:48:15;;;;;;;5.00;0.50;;;;;;;20.51;48.71;100030.97;5069425;28;20572;-62
2022/09/25 02:51:05;;;;;;;1.90;0.30;;;;;;;20.20;47.25;100043.47;5070683;28;20351;-61
2022/09/25 02:54:09;;;;;;;1.80;0.50;;;;;;;19.38;48.05;100036.69;5068924;28;20283;-60
2022/09/25 02:57:09;;;;;;;3.33;0.50;;;;;;;18.74;48.29;100037.56;5068860;28;20288;-60
2022/09/25 03:00:22;;;;;;;0.80;0.40;;;;;;;17.81;51.45;99948.13;5034742;28;20313;-61
2022/09/25 03:03:07;;;;;;;6.83;0.53;;;;;;;18.14;49.25;100047.78;4994832;28;20548;-60
2022/09/25 03:05:46;;;;;;;2.03;0.37;;;;;;;17.94;48.32;100046.16;5043398;28;20607;-60
2022/09/25 03:08:43;;;;;;;3.33;0.40;;;;;;;17.81;48.83;100035.34;5069006;28;20275;-60
2022/09/25 03:11:47;;;;;;;1.37;0.50;;;;;;;18.13;48.89;100035.50;5068260;28;20382;-60
2022/09/25 03:14:24;;;;;;;7.80;0.80;;;;;;;18.13;49.40;100035.50;5069559;28;20341;-60
2022/09/25 03:17:16;;;;;;;2.58;0.40;;;;;;;18.28;50.26;100045.28;5069367;28;20369;-60
2022/09/25 03:20:04;;;;;;;2.40;0.50;;;;;;;18.50;48.11;100035.28;5073036;28;20083;-60
2022/09/25 03:22:45;;;;;;;2.83;0.60;;;;;;;18.69;47.53;100044.88;5074376;28;20294;-60
2022/09/25 03:25:22;;;;;;;5.00;0.67;;;;;;;18.73;48.11;100042.00;5073330;28;20469;-60
2022/09/25 03:28:19;;;;;;;2.60;0.63;;;;;;;18.89;49.53;100044.69;5072527;28;20656;-59
2022/09/25 03:34:05;;;;;;;3.10;0.40;;;;;;;18.58;47.52;100031.41;5072102;28;20279;-61
2022/09/25 03:36:54;;;;;;;1.60;0.43;;;;;;;18.62;48.76;100047.03;5071613;28;20579;-61
2022/09/25 03:39:43;;;;;;;4.37;0.70;;;;;;;18.69;48.95;100050.19;5054731;28;20476;-61
2022/09/25 03:42:28;;;;;;;5.73;0.57;;;;;;;18.79;47.43;100050.56;5072728;28;20325;-61
2022/09/25 03:45:19;;;;;;;5.63;0.50;;;;;;;18.69;47.11;100044.88;5070689;28;20292;-60
2022/09/25 03:48:16;;;;;;;0.77;0.30;;;;;;;18.60;46.39;100056.84;5070325;28;20329;-61
2022/09/25 03:51:09;;;;;;;2.30;0.53;;;;;;;18.45;48.01;100047.06;5070807;28;20333;-61
2022/09/25 03:53:59;;;;;;;0.80;0.33;;;;;;;18.43;47.73;100065.66;5072798;28;20293;-60
2022/09/25 03:56:38;;;;;;;1.50;0.30;;;;;;;18.65;47.86;100059.25;5071844;28;20306;-61
2022/09/25 03:59:21;;;;;;;1.17;0.43;;;;;;;18.94;47.09;100066.47;5073199;28;20068;-62
2022/09/25 04:02:25;;;;;;;4.43;0.40;;;;;;;19.03;46.91;100066.94;5034086;28;20508;-61
2022/09/25 04:05:08;;;;;;;1.33;0.30;;;;;;;19.00;45.19;100080.34;5072908;28;20287;-60
2022/09/25 04:07:53;;;;;;;3.53;0.37;;;;;;;19.22;44.78;100086.19;5071548;28;20326;-60
2022/09/25 04:10:39;;;;;;;2.93;0.53;;;;;;;19.48;46.30;100091.81;5071822;28;20291;-61
2022/09/25 04:13:31;;;;;;;4.20;0.40;;;;;;;18.99;45.59;100068.03;5071828;28;20299;-60
2022/09/25 04:16:22;;;;;;;1.53;0.43;;;;;;;19.11;46.22;100088.56;5020266;28;20350;-62
2022/09/25 04:19:27;;;;;;;6.03;0.70;;;;;;;18.83;48.34;100105.94;5071923;28;20295;-60
2022/09/25 04:25:06;;;;;;;1.10;0.30;;;;;;;18.42;48.28;100084.22;5048532;28;20325;-61
2022/09/25 04:28:10;;;;;;;0.80;0.33;;;;;;;18.19;47.42;100088.91;5072645;28;20095;-61
2022/09/25 04:30:55;;;;;;;2.23;0.50;;;;;;;17.93;48.04;100092.88;5071213;28;20288;-62
2022/09/25 04:33:59;;;;;;;0.90;0.30;;;;;;;17.66;47.92;100090.63;5071422;28;20636;-61
2022/09/25 04:36:43;;;;;;;1.93;0.30;;;;;;;17.66;49.19;100097.69;5029618;28;20055;-62
2022/09/25 04:42:23;;;;;;;3.37;0.30;;;;;;;17.77;48.60;100118.31;5071685;28;20420;-62
2022/09/25 04:45:11;;;;;;;3.27;0.20;;;;;;;17.96;48.13;100113.88;5072191;28;20287;-62
2022/09/25 04:47:57;;;;;;;2.90;0.50;;;;;;;18.05;47.99;100105.50;5044212;28;20353;-61
2022/09/25 04:54:13;;;;;;;0.40;0.20;;;;;;;17.99;47.82;100124.28;5073140;28;20302;-61
2022/09/25 04:56:54;;;;;;;4.97;0.50;;;;;;;18.15;47.16;100118.25;5070768;28;20295;-61
2022/09/25 04:59:40;;;;;;;3.40;0.57;;;;;;;18.26;46.86;100121.19;5072332;28;20284;-61
2022/09/25 05:02:27;;;;;;;6.70;0.50;;;;;;;18.35;46.76;100112.81;5071030;28;20315;-62
2022/09/25 05:05:13;;;;;;;1.27;0.77;;;;;;;18.51;48.37;100112.88;5070943;28;20342;-62
2022/09/25 05:08:22;;;;;;;3.77;0.60;;;;;;;18.44;47.46;100104.38;5069108;28;20308;-62
2022/09/25 05:11:19;;;;;;;7.50;2.30;;;;;;;18.51;47.39;100126.94;5071146;28;20293;-61
2022/09/25 05:14:12;;;;;;;6.00;1.27;;;;;;;18.64;48.19;100126.31;5072111;28;20295;-62
2022/09/25 05:17:11;;;;;;;4.83;0.50;;;;;;;18.60;47.92;100140.66;5039853;28;20291;-61
2022/09/25 05:19:59;;;;;;;1.57;0.50;;;;;;;18.63;47.34;100151.09;5070719;28;20287;-63
2022/09/25 05:23:03;;;;;;;1.03;0.43;;;;;;;18.67;47.05;100168.50;5070971;28;20430;-62
2022/09/25 05:26:26;;;;;;;4.60;0.70;;;;;;;18.56;46.60;100181.44;5046494;28;20288;-61
2022/09/25 05:29:08;;;;;;;5.20;0.50;;;;;;;18.45;46.40;100172.25;5071124;28;20521;-60
2022/09/25 05:32:03;;;;;;;7.47;1.03;;;;;;;18.38;47.76;100162.06;5042323;28;20302;-62
2022/09/25 05:34:51;;;;;;;3.57;0.50;;;;;;;18.46;46.52;100187.19;5069428;28;20283;-62
2022/09/25 05:37:41;;;;;;;1.93;0.33;;;;;;;18.37;47.39;100187.66;5061944;28;20330;-62
2022/09/25 05:40:28;;;;;;;6.20;2.10;;;;;;;18.10;47.47;100169.56;5041438;28;20426;-63
2022/09/25 05:43:20;;;;;;;0.73;0.37;;;;;;;18.17;47.81;100195.69;5069940;28;20289;-62
2022/09/25 05:46:01;;;;;;;3.23;0.70;;;;;;;18.36;48.45;100201.81;5068793;28;20279;-63
2022/09/25 05:48:45;;;;;;;1.50;0.40;;;;;;;18.36;47.14;100196.50;5071406;28;20307;-62
2022/09/25 05:51:23;;;;;;;2.40;0.47;;;;;;;18.32;46.92;100205.53;5070938;28;20290;-61
2022/09/25 05:57:01;;;;;;;3.40;0.40;;;;;;;18.35;47.55;100223.91;5065203;28;20452;-62
2022/09/25 05:59:56;;;;;;;0.37;0.20;;;;;;;18.34;46.65;100214.25;5059681;28;20283;-62
2022/09/25 06:03:05;;;;;;;2.40;0.47;;;;;;;18.29;47.83;100219.75;4992003;28;21096;-63
2022/09/25 06:05:40;;;;;;;4.33;0.50;;;;;;;18.29;47.36;100221.56;4999181;28;20365;-63
2022/09/25 06:08:22;;;;;;;10.03;0.80;;;;;;;18.38;48.09;100231.69;4999216;28;20318;-62
2022/09/25 06:11:00;;;;;;;6.33;0.90;;;;;;;18.43;48.39;100232.31;4998760;28;20281;-65
2022/09/25 06:13:44;;;;;;;1.90;0.32;;;;;;;18.42;46.43;100246.50;4998774;28;20283;-63
2022/09/25 06:16:44;;;;;;;2.90;0.30;;;;;;;18.35;46.56;100242.44;4999195;28;20061;-65
2022/09/25 06:19:23;;;;;;;3.33;0.50;;;;;;;18.31;47.18;100246.16;4998276;28;20062;-65
2022/09/25 06:22:16;;;;;;;2.43;0.50;;;;;;;18.31;48.38;100251.44;4998026;28;20545;-64
2022/09/25 06:28:07;;;;;;;2.93;0.50;;;;;;;18.30;47.64;100265.59;5048258;28;20360;-65
2022/09/25 06:30:49;;;;;;;2.35;0.30;;;;;;;18.20;46.88;100269.63;5048240;28;20287;-66
2022/09/25 06:33:32;;;;;;;1.30;0.37;;;;;;;18.11;47.44;100279.69;5027091;28;20045;-65
2022/09/25 06:36:22;;;;;;;2.70;0.50;;;;;;;18.09;48.47;100283.34;5028633;28;20583;-65
2022/09/25 06:39:10;;;;;;;2.20;0.50;;;;;;;18.12;49.29;100277.91;5070932;28;20287;-66
2022/09/25 06:42:00;;;;;;;3.70;1.00;;;;;;;18.05;49.02;100287.94;5067203;28;20647;-65
2022/09/25 06:50:46;;;;;;;7.20;0.50;;;;;;;17.46;49.40;100251.84;5066306;28;20573;-64
2022/09/25 06:53:43;;;;;;;3.80;0.30;;;;;;;17.46;49.45;100278.25;5073384;28;20294;-65
2022/09/25 06:56:34;;;;;;;2.90;0.53;;;;;;;17.19;49.16;100262.69;5028895;28;20334;-62
2022/09/25 06:59:26;;;;;;;4.53;0.50;;;;;;;17.22;50.74;100281.06;5005715;28;20687;-63
2022/09/25 07:05:18;;;;;;;2.47;0.30;;;;;;;17.03;51.07;100288.91;5054346;28;20343;-63
2022/09/25 07:08:04;;;;;;;7.93;0.67;;;;;;;16.94;51.17;100291.94;5005966;28;20307;-63
2022/09/25 07:11:00;;;;;;;2.77;0.43;;;;;;;16.88;51.69;100291.34;5054142;28;20300;-64
2022/09/25 07:16:57;;;;;;;1.53;0.57;;;;;;;16.75;52.84;100307.66;5053301;28;20311;-63
2022/09/25 07:19:43;;;;;;;4.17;0.33;;;;;;;16.68;53.06;100316.75;5027977;28;20307;-63
2022/09/25 07:22:32;;;;;;;5.55;0.65;;;;;;;16.61;53.60;100315.28;5002899;28;20319;-63
2022/09/25 07:25:42;;;;;;;5.00;0.40;;;;;;;16.52;54.10;100324.41;5053298;28;20063;-63
2022/09/25 07:28:28;;;;;;;5.23;0.60;;;;;;;16.48;53.57;100337.81;5019069;28;20304;-64
2022/09/25 07:31:13;;;;;;;8.60;0.63;;;;;;;16.45;53.68;100335.25;5053742;28;20288;-64
2022/09/25 07:33:55;;;;;;;5.40;0.40;;;;;;;16.42;53.82;100340.66;5034351;28;20311;-64
2022/09/25 07:39:45;;;;;;;6.37;0.50;;;;;;;16.21;54.53;100322.13;5051279;28;20356;-63
2022/09/25 07:42:40;;;;;;;5.10;0.53;;;;;;;16.12;54.40;100338.28;5053904;28;20298;-63
2022/09/25 07:45:34;;;;;;;5.93;0.40;;;;;;;16.01;54.49;100345.75;5052866;28;20276;-63
2022/09/25 07:48:10;;;;;;;8.10;0.60;;;;;;;15.96;54.45;100349.41;5051718;28;20339;-63
2022/09/25 07:50:55;;;;;;;7.93;0.50;;;;;;;15.88;54.85;100346.22;5053126;28;20288;-64
2022/09/25 07:53:37;;;;;;;5.15;0.52;;;;;;;15.73;55.72;100347.63;5035540;28;20288;-63
2022/09/25 07:56:27;;;;;;;3.05;0.50;;;;;;;15.56;56.90;100343.84;5053064;28;20064;-64
2022/09/25 07:59:13;;;;;;;9.40;1.10;;;;;;;15.06;57.22;100287.66;5045935;28;20107;-63
2022/09/25 08:01:51;;;;;;;7.73;2.33;;;;;;;15.45;59.23;100358.28;5010281;28;20280;-63
2022/09/25 08:04:32;;;;;;;9.27;1.87;;;;;;;15.41;61.73;100376.84;5042637;28;20306;-65
2022/09/25 08:07:10;;;;;;;8.93;1.27;;;;;;;14.94;63.52;100308.25;5042193;28;20367;-65
2022/09/25 08:12:34;;;;;;;22.80;2.50;;;;;;;14.93;64.52;100365.28;5008286;28;20288;-63
2022/09/25 08:15:28;;;;;;;11.10;1.97;;;;;;;14.37;64.75;100312.69;5042511;28;20344;-64
2022/09/25 08:18:11;;;;;;;27.77;3.40;;;;;;;14.66;66.47;100399.44;5043036;28;20337;-64
2022/09/25 08:20:51;;;;;;;26.57;4.77;;;;;;;14.56;67.38;100408.53;5043129;28;20280;-64
2022/09/25 08:23:43;;;;;;;47.40;21.27;;;;;;;14.36;67.95;100400.34;4986549;28;20307;-66
2022/09/25 08:26:29;;;;;;;22.27;12.23;;;;;;;14.23;67.07;100384.94;5042729;28;20336;-65
2022/09/25 08:29:07;;;;;;;19.00;7.57;;;;;;;14.03;68.14;100393.41;4994743;28;20568;-65
2022/09/25 08:31:41;;;;;;;25.13;7.20;;;;;;;13.99;68.68;100412.78;5042036;28;20320;-65
2022/09/25 08:34:18;;;;;;;39.93;14.93;;;;;;;13.99;70.05;100428.53;5042360;28;20454;-62
2022/09/25 08:37:12;;;;;;;113.93;45.23;;;;;;;13.67;70.79;100437.28;5020004;28;20359;-67
2022/09/25 08:49:08;;;;;;;29.30;18.57;;;;;;;12.89;74.62;100424.31;5042246;28;20064;-64
2022/09/25 08:52:07;;;;;;;;;;;;;;;;;;;;;
2022/09/25 08:55:02;;;;;;;17.85;6.90;;;;;;;12.35;76.89;100466.56;5000796;28;20086;-65
2022/09/25 08:57:45;;;;;;;12.98;5.82;;;;;;;12.24;76.95;100463.31;4998964;28;20065;-64
2022/09/25 09:00:35;;;;;;;10.95;2.60;;;;;;;12.23;76.56;100456.34;5000878;28;20046;-64
2022/09/25 09:03:19;;;;;;;6.88;0.73;;;;;;;12.20;76.02;100453.78;4970691;28;20054;-63
2022/09/25 09:06:16;;;;;;;16.35;1.35;;;;;;;12.16;75.75;100449.50;5000853;28;20065;-62
2022/09/25 09:11:59;;;;;;;35.28;17.25;;;;;;;12.15;76.65;100468.72;4952608;28;20306;-62
2022/09/25 09:14:43;;;;;;;14.75;9.00;;;;;;;11.72;76.84;100417.16;4967435;28;20061;-63
2022/09/25 09:17:22;;;;;;;8.45;1.77;;;;;;;11.91;77.12;100470.94;4998570;28;20421;-64
2022/09/25 09:20:05;;;;;;;15.48;1.98;;;;;;;11.57;77.66;100445.31;4999849;28;20066;-64
2022/09/25 09:22:54;;;;;;;2.00;1.00;;;;;;;11.56;78.45;100461.94;4998887;28;20263;-62
2022/09/25 09:25:42;;;;;;;7.43;2.25;;;;;;;11.41;79.27;100473.50;4999993;28;20058;-62
2022/09/25 09:29:24;;;;;;;10.73;1.67;;;;;;;11.28;80.40;100478.94;4974101;28;20061;-61
2022/09/25 09:32:15;;;;;;;3.85;1.20;;;;;;;11.25;80.98;100494.69;4923513;29;20070;-63
2022/09/25 09:35:19;;;;;;;7.43;2.15;;;;;;;11.19;81.17;100496.53;4923476;29;20067;-60
2022/09/25 09:38:07;;;;;;;8.55;1.40;;;;;;;11.12;81.51;100484.41;4923601;29;20115;-64
2022/09/25 09:41:15;;;;;;;6.07;1.25;;;;;;;11.01;81.76;100502.03;4923015;29;20055;-69
2022/09/25 09:44:06;;;;;;;8.60;1.70;;;;;;;10.83;82.17;100507.50;4895127;29;20067;-71
2022/09/25 09:46:55;;;;;;;2.97;1.10;;;;;;;10.77;83.34;100514.53;4988946;28;20276;-70
2022/09/25 09:49:41;;;;;;;12.52;1.58;;;;;;;10.70;83.71;100528.56;4988066;28;20067;-66
2022/09/25 09:52:41;;;;;;;3.33;0.85;;;;;;;10.55;84.23;100502.63;4990823;28;20579;-61
2022/09/25 09:55:46;;;;;;;3.10;2.30;;;;;;;10.53;84.46;100520.06;4985790;28;20311;-62
2022/09/25 09:58:26;;;;;;;3.88;2.50;;;;;;;10.34;84.41;100504.63;4962230;28;20064;-61
2022/09/25 10:01:26;;;;;;;5.35;1.52;;;;;;;10.34;84.99;100535.97;4960263;28;20055;-62
2022/09/25 10:04:15;;;;;;;6.43;1.92;;;;;;;10.24;85.55;100530.84;4989131;28;20062;-63
2022/09/25 10:07:07;;;;;;;3.55;1.40;;;;;;;10.13;85.92;100530.94;5035983;28;20256;-62
2022/09/25 10:09:44;;;;;;;3.40;1.45;;;;;;;10.04;86.66;100531.91;5068401;28;20090;-62
2022/09/25 10:12:43;;;;;;;5.40;1.60;;;;;;;10.05;86.86;100543.22;5070322;28;20349;-61
2022/09/25 10:15:43;;;;;;;8.07;2.03;;;;;;;9.65;87.06;100488.78;4989485;28;20060;-63
2022/09/25 10:18:31;;;;;;;7.07;1.95;;;;;;;9.96;87.26;100558.94;4988653;28;20054;-63
2022/09/25 10:21:23;;;;;;;5.68;1.83;;;;;;;10.01;87.54;100567.59;4985991;28;20053;-62
2022/09/25 10:24:23;;;;;;;8.98;4.32;;;;;;;9.80;87.69;100506.03;4987985;28;20070;-62
2022/09/25 10:27:29;;;;;;;8.27;4.40;;;;;;;10.11;87.33;100537.94;4959829;28;20054;-61
2022/09/25 10:30:25;;;;;;;8.32;2.47;;;;;;;10.22;87.16;100558.72;4963817;28;20058;-61
2022/09/25 10:33:10;;;;;;;7.30;3.15;;;;;;;10.02;86.79;100553.69;4988526;28;20078;-62
2022/09/25 10:36:06;;;;;;;3.72;1.50;;;;;;;10.06;86.63;100578.88;4967362;28;20070;-63
2022/09/25 10:39:08;;;;;;;3.33;1.45;;;;;;;9.53;86.61;100494.09;4987188;28;20073;-62
2022/09/25 10:42:37;;;;;;;5.53;1.33;;;;;;;9.86;87.24;100564.28;4986698;28;20387;-62
2022/09/25 10:45:57;;;;;;;14.05;1.35;;;;;;;9.44;87.62;100508.09;4986340;28;20056;-62
2022/09/25 10:52:22;;;;;;;2.63;1.58;;;;;;;9.77;87.60;100590.44;4987919;28;20212;-62
2022/09/25 10:55:33;;;;;;;2.17;0.70;;;;;;;9.77;87.88;100605.22;4987236;28;20110;-62
2022/09/25 11:01:42;;;;;;;1.23;1.10;;;;;;;9.89;87.84;100606.00;4946110;29;20391;-62
2022/09/25 11:04:25;;;;;;;1.98;0.93;;;;;;;9.90;87.80;100623.38;4950500;29;20079;-61
2022/09/25 11:07:03;;;;;;;5.70;2.10;;;;;;;9.90;87.48;100631.22;5009395;28;20045;-62
2022/09/25 11:09:56;;;;;;;5.05;2.88;;;;;;;9.87;87.15;100631.25;5008937;28;20101;-62
2022/09/25 11:12:39;;;;;;;10.60;3.50;;;;;;;9.88;87.17;100625.16;5009080;28;20124;-62
2022/09/25 11:18:38;;;;;;;5.97;3.40;;;;;;;9.77;87.53;100619.16;5008226;28;20088;-63
2022/09/25 11:21:43;;;;;;;5.03;3.13;;;;;;;9.66;87.61;100623.56;5006780;28;20069;-62
2022/09/25 11:24:41;;;;;;;10.77;3.67;;;;;;;9.42;88.58;100599.38;5007547;28;20089;-61
2022/09/25 11:27:24;;;;;;;13.10;4.60;;;;;;;9.48;88.64;100607.19;5005768;28;20078;-62
2022/09/25 11:30:15;;;;;;;7.10;4.03;;;;;;;9.55;88.95;100625.38;5060321;28;20056;-62
2022/09/25 11:33:30;;;;;;;9.55;4.40;;;;;;;9.45;89.02;100625.44;5067893;28;20056;-62
2022/09/25 11:36:46;;;;;;;6.65;3.75;;;;;;;9.52;89.44;100630.63;5069048;28;20308;-62
2022/09/25 11:42:35;;;;;;;9.75;3.78;;;;;;;9.41;89.03;100628.97;5073536;28;20052;-61
2022/09/25 11:45:22;;;;;;;13.25;3.78;;;;;;;9.44;89.01;100636.75;5042380;28;20056;-61
2022/09/25 11:48:33;;;;;;;20.23;5.05;;;;;;;9.47;88.79;100639.34;5073370;28;20045;-62
2022/09/25 11:54:37;;;;;;;11.93;4.25;;;;;;;9.41;89.08;100628.97;5072772;28;20068;-62
2022/09/25 11:57:23;;;;;;;;;;;;;;;9.38;88.99;100634.16;5072923;28;20036;-61
2022/09/25 12:00:24;;;;;;;7.07;2.97;;;;;;;9.31;89.30;100636.81;5072980;28;20015;-62
2022/09/25 12:03:25;;;;;;;2.95;1.80;;;;;;;9.26;89.05;100644.66;5074231;28;20048;-61
2022/09/25 12:06:55;;;;;;;3.00;1.60;;;;;;;8.94;89.18;100606.59;5037739;28;20079;-62
2022/09/25 12:10:03;;;;;;;7.93;1.05;;;;;;;9.10;89.52;100637.78;5032591;28;20122;-61
2022/09/25 12:13:11;;;;;;;6.22;2.50;;;;;;;9.07;90.03;100647.34;5073310;28;20040;-61
2022/09/25 12:16:12;;;;;;;4.32;2.00;;;;;;;9.05;90.16;100646.50;5072424;28;20061;-61
2022/09/25 12:19:22;;;;;;;9.80;3.72;;;;;;;8.98;90.42;100634.34;5072154;28;20060;-62
2022/09/25 12:25:17;;;;;;;7.45;3.50;;;;;;;9.12;90.55;100646.47;5071892;28;20090;-61
2022/09/25 12:28:15;;;;;;;5.05;2.80;;;;;;;8.84;90.29;100610.09;5055875;28;20060;-60
2022/09/25 12:31:12;;;;;;;6.88;3.42;;;;;;;9.02;90.69;100649.13;5072028;28;20080;-61
2022/09/25 12:34:00;;;;;;;11.18;2.30;;;;;;;8.83;90.70;100619.63;5045834;28;20117;-61
2022/09/25 12:36:49;;;;;;;5.03;1.90;;;;;;;9.04;90.70;100652.59;5037922;28;20073;-61
2022/09/25 12:39:46;;;;;;;10.00;2.55;;;;;;;8.97;90.40;100643.06;5071852;28;20507;-62
2022/09/25 12:42:55;;;;;;;15.52;5.32;;;;;;;8.92;90.23;100644.81;5070840;28;20091;-62
2022/09/25 12:45:52;;;;;;;12.60;6.07;;;;;;;8.95;90.77;100660.44;5071121;28;20103;-62
2022/09/25 12:48:42;;;;;;;5.80;3.25;;;;;;;8.91;90.77;100666.56;5071989;28;20041;-61
2022/09/25 12:51:34;;;;;;;5.85;2.90;;;;;;;8.77;90.99;100652.69;5072620;28;20041;-61
2022/09/25 12:57:37;;;;;;;7.20;4.00;;;;;;;8.72;91.21;100657.03;5072416;28;20066;-61
2022/09/25 13:04:07;;;;;;;10.27;3.80;;;;;;;8.72;91.02;100670.06;5071009;28;20241;-62
2022/09/25 13:07:31;;;;;;;8.05;3.75;;;;;;;8.64;91.20;100697.00;5072130;28;20048;-62
2022/09/25 13:10:28;;;;;;;4.22;1.73;;;;;;;8.61;91.58;100686.59;5065065;28;20792;-61
2022/09/25 13:16:08;;;;;;;5.05;1.48;;;;;;;8.62;92.07;100693.53;5067430;28;20120;-61
2022/09/25 13:19:25;;;;;;;3.53;1.40;;;;;;;8.59;91.84;100693.53;5042429;28;20111;-61
2022/09/25 13:23:12;;;;;;;5.22;0.80;;;;;;;8.51;91.89;100697.91;5044581;28;20112;-61
2022/09/25 13:26:09;;;;;;;6.07;1.00;;;;;;;8.46;92.37;100704.81;5048354;28;20056;-61
2022/09/25 13:29:06;;;;;;;9.65;1.80;;;;;;;8.38;92.35;100699.59;5049731;28;20067;-62
2022/09/25 13:31:53;;;;;;;8.20;1.30;;;;;;;8.35;92.60;100699.59;5011187;28;20045;-61
2022/09/25 13:34:41;;;;;;;2.55;1.00;;;;;;;8.45;93.06;100702.22;5047643;28;20053;-61
2022/09/25 13:37:22;;;;;;;4.80;1.17;;;;;;;8.57;93.13;100704.81;5047225;28;20053;-61
2022/09/25 13:46:22;;;;;;;4.38;1.20;;;;;;;8.35;93.45;100698.72;5049418;28;20053;-60
2022/09/25 13:49:56;;;;;;;5.07;2.00;;;;;;;8.28;93.98;100682.22;5047640;28;20061;-61
2022/09/25 13:53:15;;;;;;;2.50;0.80;;;;;;;8.20;94.56;100655.34;5048703;28;20049;-60
2022/09/25 13:56:47;;;;;;;2.83;0.75;;;;;;;8.53;94.43;100698.72;5047833;28;20105;-61
2022/09/25 13:59:42;;;;;;;2.45;0.77;;;;;;;8.50;94.29;100672.69;5047723;28;20083;-61
2022/09/25 14:02:59;;;;;;;2.58;0.80;;;;;;;8.66;94.15;100698.72;4997943;28;20052;-61
2022/09/25 14:05:48;;;;;;;7.88;1.05;;;;;;;8.71;94.21;100686.56;5017881;28;20053;-61
2022/09/25 14:08:33;;;;;;;3.78;1.30;;;;;;;8.76;94.09;100679.59;5048485;28;20072;-60
2022/09/25 14:11:33;;;;;;;1.13;0.77;;;;;;;8.75;93.86;100677.88;5048330;28;20061;-60
2022/09/25 14:14:25;;;;;;;1.17;0.50;;;;;;;8.72;94.05;100667.47;5048915;28;20053;-60
2022/09/25 14:17:09;;;;;;;3.40;0.93;;;;;;;8.90;94.15;100662.19;5047362;28;20053;-60
2022/09/25 14:20:20;;;;;;;4.10;1.17;;;;;;;8.98;93.74;100655.22;5001728;28;20037;-60
2022/09/25 14:23:07;;;;;;;5.97;1.42;;;;;;;8.98;93.08;100650.00;5046848;28;20349;-61
2022/09/25 14:25:46;;;;;;;3.10;1.35;;;;;;;8.76;93.00;100632.69;4999236;28;20059;-61
2022/09/25 14:28:40;;;;;;;3.70;1.20;;;;;;;8.80;92.60;100644.84;5046633;28;20063;-60
2022/09/25 14:31:51;;;;;;;4.60;1.10;;;;;;;8.89;92.68;100668.28;5046743;28;20053;-61
2022/09/25 14:35:04;;;;;;;1.42;1.00;;;;;;;8.75;92.27;100646.59;5046890;28;20045;-61
2022/09/25 14:38:30;;;;;;;3.40;1.27;;;;;;;8.75;92.67;100651.81;5048463;28;20057;-61
2022/09/25 14:41:36;;;;;;;3.25;0.90;;;;;;;8.72;92.53;100662.25;5046526;28;20053;-60
2022/09/25 14:44:39;;;;;;;;;;;;;;;8.73;92.52;100658.75;4980636;28;20055;-61
2022/09/25 14:47:32;;;;;;;1.02;0.50;;;;;;;8.70;92.27;100653.56;4979813;28;19933;-60
2022/09/25 14:50:22;;;;;;;1.88;0.60;;;;;;;8.67;91.97;100664.00;4979951;28;20065;-61
2022/09/25 14:53:07;;;;;;;1.40;0.70;;;;;;;8.28;92.26;100618.88;4949858;28;20347;-60
2022/09/25 14:56:04;;;;;;;1.75;0.63;;;;;;;8.66;92.18;100657.03;4980115;28;20042;-60
2022/09/25 14:59:09;;;;;;;2.92;0.82;;;;;;;8.69;92.17;100672.69;4978550;28;20442;-60
2022/09/25 15:01:55;;;;;;;3.80;0.70;;;;;;;8.51;91.92;100640.59;4911806;29;20569;-60
2022/09/25 15:04:40;;;;;;;3.70;0.82;;;;;;;8.70;91.59;100679.63;4915290;29;20092;-60
2022/09/25 15:07:24;;;;;;;1.00;0.70;;;;;;;8.40;91.36;100621.50;4913130;29;20313;-60
2022/09/25 15:10:32;;;;;;;1.88;0.90;;;;;;;8.53;91.43;100651.84;4866896;29;20139;-59
2022/09/25 15:13:20;;;;;;;1.23;0.70;;;;;;;8.47;91.42;100636.25;4920768;29;20112;-59
2022/09/25 15:19:02;;;;;;;3.80;0.70;;;;;;;8.28;91.56;100608.47;4928304;29;20063;-59